Impacts METAR Board
IDs:

KLAS - Las Vegas/McCarran I, NV, US

Updated at: 0200 UTC 16 Oct 2018
Potential Impact None Slight Moderate High
Time 15/14Z 15/15Z 15/16Z 15/17Z 15/18Z 15/19Z 15/20Z 15/21Z 15/22Z 15/23Z 16/00Z 16/01Z 16/02Z
Temp52 54 56 58 60 62 65 67 68 69 68 66 65
Dewpt7 7 7 8 7 7 6 4 4 6 5 7 6
Altim30.27 30.28 30.30 30.29 30.28 30.25 30.22 30.19 30.16 30.15 30.13 30.12 30.13
VIS10 10 10 10 10 10 10 10 10 10 10 10 10
CIG-- -- -- -- -- -- -- -- -- -- -- -- --
CoverCLRCLRCLRCLRCLRCLRCLRCLRCLRCLRCLRCLRCLR
FltCatVFRVFRVFRVFRVFRVFRVFRVFRVFRVFRVFRVFRVFR
WX--------------------------
WDir34036035035036034030503010204040
WSpd10 11 12 16 10 13 20 23 17 19 10 13 13
WGst-- -- 20 23 20 23 26 27 -- 24 -- -- --
Raw hourly METARs
KLAS 151356Z 34010KT 10SM CLR 11/M14 A3027 RMK AO2 SLP242 T01111139
KLAS 151456Z 36011KT 10SM CLR 12/M14 A3028 RMK AO2 SLP247 T01221139 51017
KLAS 151556Z 35012G20KT 10SM CLR 13/M14 A3030 RMK AO2 SLP253 T01331139
KLAS 151656Z 35016G23KT 10SM CLR 14/M13 A3029 RMK AO2 SLP249 T01441133
KLAS 151756Z 36010G20KT 10SM CLR 16/M14 A3028 RMK AO2 SLP245 T01561139 10156 20111 58002
KLAS 151856Z 34013G23KT 10SM CLR 17/M14 A3025 RMK AO2 SLP236 T01671139
KLAS 151956Z 03020G26KT 10SM CLR 18/M14 A3022 RMK AO2 PK WND 04026/1955 SLP224 T01831144
KLAS 152056Z 05023G27KT 10SM CLR 19/M16 A3019 RMK AO2 PK WND 05027/2055 SLP214 T01941156 58027
KLAS 152156Z 03017KT 10SM CLR 20/M16 A3016 RMK AO2 PK WND 02028/2120 SLP204 T02001156
KLAS 152256Z 01019G24KT 10SM CLR 21/M14 A3015 RMK AO2 PK WND 04027/2239 SLP199 T02061144
KLAS 152356Z 02010KT 10SM CLR 20/M15 A3013 RMK AO2 PK WND 02026/2258 SLP194 T02001150 10206 20150 56019
KLAS 160056Z 04013KT 10SM CLR 19/M14 A3012 RMK AO2 SLP192 T01891139
KLAS 160156Z 04013KT 10SM CLR 18/M14 A3013 RMK AO2 SLP194 T01831144



Page loaded:  02:43 UTC  |   07:43 PM Pacific  |   08:43 PM Mountain  |   09:43 PM Central  |   10:43 PM Eastern

 

ADVISORIES

FORECASTS

FORECASTS

OBSERVATIONS

USER TOOLS

ABOUT US